Terminal Aerodrome Forecast
Issued by NWS

Home | Current Version | Previous Version | Graphics & Text | Print | Product List | Glossary On
Versions: 1 2 3 4 5 6 7 8 9 10 11 12 13 14 15 16 17 18 19
000
FTUS43 KTOP 261000 AAA
TAFFOE
TAF AMD
KFOE 261032Z 2611/2706 35014KT P6SM SCT100
     FM261500 04007KT P6SM SCT100
     FM261800 13009KT P6SM SCT080=

USA.gov is the U.S. government's official web portal to all federal, state and local government web resources and services.